| time (UTC) | temp F | wind direction | speed MPH | gust MPH | rain 1hr in | rain 24hr in | rain mn in | humidity % | barometer mb |
| 20260507083028 | 40 | 300 | 2.0 | 4.0 | 0.00 | 0.00 | 0.00 | 71 | 1014.4 |
| 20260507081542 | 40 | 305 | 2.0 | 5.0 | 0.00 | 0.00 | 0.00 | 70 | 1014.5 |
| 20260507080009 | 40 | 274 | 2.0 | 4.0 | 0.00 | 0.00 | 0.00 | 70 | 1014.5 |
| 20260507074508 | 41 | 291 | 2.0 | 6.0 | 0.00 | 0.00 | 0.00 | 69 | 1014.6 |
| 20260507073006 | 41 | 298 | 3.0 | 5.0 | 0.00 | 0.00 | 0.00 | 69 | 1014.4 |
| 20260507071510 | 42 | 295 | 3.0 | 5.0 | 0.00 | 0.00 | 0.00 | 68 | 1014.6 |
| 20260507070013 | 43 | 294 | 3.0 | 6.0 | 0.00 | 0.00 | 0.00 | 67 | 1014.6 |
| 20260507064515 | 43 | 311 | 5.0 | 8.0 | 0.00 | 0.00 | 0.00 | 67 | 1014.6 |
| 20260507063006 | 43 | 307 | 5.0 | 9.0 | 0.00 | 0.00 | 0.00 | 66 | 1014.7 |
| 20260507061522 | 43 | 321 | 4.0 | 8.0 | 0.00 | 0.00 | 0.00 | 67 | 1014.8 |
| 20260507060021 | 43 | 303 | 4.0 | 6.0 | 0.00 | 0.00 | 0.00 | 68 | 1014.6 |
| 20260507054520 | 44 | 282 | 3.0 | 5.0 | 0.00 | 0.00 | 0.00 | 69 | 1014.5 |
| 20260507053017 | 44 | 307 | 2.0 | 5.0 | 0.00 | 0.00 | 0.00 | 67 | 1014.5 |
| 20260507051504 | 45 | 286 | 2.0 | 5.0 | 0.00 | 0.00 | 0.00 | 67 | 1014.5 |
| 20260507050016 | 45 | 285 | 2.0 | 6.0 | 0.00 | 0.00 | 0.00 | 66 | 1014.5 |
| 20260507044526 | 46 | 269 | 2.0 | 5.0 | 0.00 | 0.00 | 0.00 | 65 | 1014.5 |
| 20260507043018 | 46 | 272 | 3.0 | 6.0 | 0.00 | 0.00 | 0.00 | 64 | 1014.4 |
| 20260507041520 | 45 | 260 | 1.0 | 3.0 | 0.00 | 0.00 | 0.00 | 65 | 1014.5 |
| 20260507040004 | 46 | 255 | 2.0 | 3.0 | 0.00 | 0.00 | 0.00 | 63 | 1014.5 |
| 20260507034510 | 46 | 243 | 2.0 | 2.0 | 0.00 | 0.00 | 0.00 | 63 | 1014.5 |
| 20260507033018 | 45 | 237 | 0.0 | 1.0 | 0.00 | 0.00 | 0.00 | 66 | 1014.6 |
| 20260507031519 | 45 | 23 | 0.0 | 0.0 | 0.00 | 0.00 | 0.00 | 66 | 1014.5 |
| 20260507030022 | 45 | 23 | 0.0 | 0.0 | 0.00 | 0.00 | 0.00 | 66 | 1014.6 |
| 20260507024522 | 46 | 23 | 0.0 | 0.0 | 0.00 | 0.00 | 0.00 | 64 | 1014.6 |
| 20260507023014 | 46 | 23 | 0.0 | 0.0 | 0.00 | 0.00 | 0.00 | 63 | 1014.6 |
| 20260507021517 | 47 | 24 | 0.0 | 0.0 | 0.00 | 0.00 | 0.00 | 64 | 1014.5 |
| 20260507020022 | 47 | 24 | 0.0 | 0.0 | 0.00 | 0.00 | 0.00 | 64 | 1014.5 |
| 20260507014527 | 47 | 23 | 0.0 | 0.0 | 0.00 | 0.00 | 0.00 | 63 | 1014.3 |
| 20260507013021 | 48 | 23 | 0.0 | 0.0 | 0.00 | 0.01 | 0.00 | 60 | 1014.2 |
| 20260507011516 | 48 | 23 | 0.0 | 0.0 | 0.00 | 0.01 | 0.00 | 58 | 1014.2 |
| 20260507010020 | 48 | 23 | 0.0 | 0.0 | 0.00 | 0.01 | 0.00 | 56 | 1014.1 |
| 20260507004523 | 49 | 24 | 0.0 | 1.0 | 0.00 | 0.02 | 0.00 | 56 | 1014.0 |
| 20260507003026 | 50 | 23 | 0.0 | 2.0 | 0.00 | 0.02 | 0.00 | 53 | 1013.8 |
| 20260507001526 | 51 | 321 | 0.0 | 3.0 | 0.00 | 0.03 | 0.00 | 51 | 1013.8 |
| 20260507000022 | 52 | 319 | 1.0 | 3.0 | 0.00 | 0.03 | 0.00 | 49 | 1013.8 |
| 20260506234521 | 52 | 317 | 1.0 | 4.0 | 0.00 | 0.04 | 0.00 | 50 | 1013.8 |
| 20260506233024 | 53 | 301 | 7.0 | 9.0 | 0.00 | 0.04 | 0.00 | 46 | 1013.8 |
| 20260506231527 | 54 | 297 | 6.0 | 8.0 | 0.00 | 0.04 | 0.00 | 47 | 1013.7 |
| 20260506230026 | 53 | 288 | 3.0 | 8.0 | 0.00 | 0.05 | 0.00 | 50 | 1013.8 |
| 20260506224518 | 54 | 307 | 4.0 | 8.0 | 0.00 | 0.05 | 0.00 | 50 | 1013.7 |
| 20260506223023 | 54 | 259 | 4.0 | 10.0 | 0.00 | 0.05 | 0.00 | 47 | 1013.6 |
| 20260506221531 | 54 | 241 | 4.0 | 12.0 | 0.00 | 0.07 | 0.00 | 48 | 1013.6 |
| 20260506220033 | 54 | 293 | 5.0 | 8.0 | 0.00 | 0.09 | 0.00 | 45 | 1013.6 |
| 20260506214502 | 54 | 281 | 4.0 | 9.0 | 0.00 | 0.12 | 0.00 | 46 | 1013.6 |
| 20260506213009 | 55 | 300 | 8.0 | 12.0 | 0.00 | 0.15 | 0.00 | 44 | 1013.6 |
| 20260506211504 | 54 | 297 | 8.0 | 15.0 | 0.00 | 0.15 | 0.00 | 46 | 1013.7 |
| 20260506210009 | 54 | 311 | 5.0 | 11.0 | 0.00 | 0.15 | 0.00 | 48 | 1013.8 |
| 20260506204512 | 54 | 317 | 7.0 | 11.0 | 0.00 | 0.15 | 0.00 | 47 | 1013.7 |
| 20260506203002 | 54 | 325 | 6.0 | 11.0 | 0.00 | 0.15 | 0.00 | 46 | 1013.6 |
| 20260506201506 | 54 | 286 | 6.0 | 13.0 | 0.00 | 0.15 | 0.00 | 49 | 1013.7 |
| 20260506200008 | 55 | 261 | 5.0 | 13.0 | 0.00 | 0.16 | 0.00 | 47 | 1013.8 |
| 20260506194510 | 54 | 257 | 6.0 | 10.0 | 0.00 | 0.16 | 0.00 | 47 | 1013.9 |
| 20260506193016 | 54 | 281 | 5.0 | 11.0 | 0.00 | 0.17 | 0.00 | 48 | 1014.0 |
| 20260506191508 | 54 | 312 | 5.0 | 11.0 | 0.00 | 0.18 | 0.00 | 47 | 1013.9 |
| 20260506190005 | 53 | 276 | 4.0 | 13.0 | 0.00 | 0.20 | 0.00 | 50 | 1014.0 |
| 20260506184507 | 53 | 285 | 4.0 | 9.0 | 0.00 | 0.20 | 0.00 | 47 | 1014.1 |
| 20260506183012 | 53 | 307 | 6.0 | 10.0 | 0.00 | 0.21 | 0.00 | 47 | 1014.2 |
| 20260506181518 | 53 | 280 | 5.0 | 8.0 | 0.00 | 0.21 | 0.00 | 45 | 1014.1 |
| 20260506180021 | 54 | 290 | 6.0 | 10.0 | 0.00 | 0.21 | 0.00 | 50 | 1014.0 |
| 20260506174505 | 53 | 286 | 5.0 | 12.0 | 0.00 | 0.21 | 0.00 | 44 | 1014.0 |
| 20260506173008 | 53 | 25 | 5.0 | 12.0 | 0.00 | 0.21 | 0.00 | 48 | 1013.7 |
| 20260506171513 | 54 | 357 | 1.0 | 8.0 | 0.00 | 0.22 | 0.00 | 50 | 1014.0 |
| 20260506170018 | 54 | 17 | 1.0 | 7.0 | 0.00 | 0.22 | 0.00 | 48 | 1014.0 |
| 20260506164524 | 53 | 319 | 5.0 | 10.0 | 0.00 | 0.22 | 0.00 | 50 | 1014.0 |
| 20260506163010 | 53 | 314 | 4.0 | 10.0 | 0.00 | 0.22 | 0.00 | 48 | 1014.0 |
| 20260506161510 | 53 | 314 | 7.0 | 13.0 | 0.00 | 0.22 | 0.00 | 45 | 1014.1 |
| 20260506160017 | 54 | 75 | 3.0 | 10.0 | 0.00 | 0.22 | 0.00 | 49 | 1014.2 |
| 20260506154527 | 54 | 323 | 5.0 | 12.0 | 0.00 | 0.22 | 0.00 | 45 | 1014.2 |
| 20260506153024 | 54 | 18 | 5.0 | 11.0 | 0.00 | 0.22 | 0.00 | 50 | 1013.9 |
| 20260506151506 | 53 | 311 | 4.0 | 9.0 | 0.00 | 0.22 | 0.00 | 53 | 1014.0 |
| 20260506150014 | 53 | 11 | 4.0 | 9.0 | 0.00 | 0.22 | 0.00 | 51 | 1013.8 |
| 20260506144519 | 52 | 21 | 2.0 | 9.0 | 0.00 | 0.22 | 0.00 | 52 | 1013.6 |
| 20260506143022 | 51 | 297 | 8.0 | 12.0 | 0.00 | 0.22 | 0.00 | 50 | 1013.4 |
| 20260506141525 | 51 | 24 | 2.0 | 8.0 | 0.00 | 0.22 | 0.00 | 56 | 1013.4 |
| 20260506140010 | 51 | 9 | 3.0 | 7.0 | 0.00 | 0.22 | 0.00 | 54 | 1013.3 |
| 20260506134515 | 50 | 13 | 1.0 | 10.0 | 0.00 | 0.22 | 0.00 | 59 | 1013.3 |
| 20260506133021 | 50 | 293 | 2.0 | 10.0 | 0.00 | 0.22 | 0.00 | 59 | 1013.1 |
| 20260506131524 | 49 | 9 | 2.0 | 8.0 | 0.00 | 0.22 | 0.00 | 62 | 1012.8 |
| 20260506130026 | 49 | 19 | 2.0 | 5.0 | 0.00 | 0.22 | 0.00 | 61 | 1012.7 |
| 20260506124514 | 48 | 32 | 3.0 | 6.0 | 0.00 | 0.22 | 0.00 | 60 | 1012.5 |
| 20260506123018 | 47 | 310 | 2.0 | 6.0 | 0.00 | 0.22 | 0.00 | 63 | 1012.5 |
| 20260506121523 | 46 | 335 | 2.0 | 8.0 | 0.00 | 0.22 | 0.00 | 68 | 1012.5 |
| 20260506120006 | 45 | 324 | 1.0 | 6.0 | 0.00 | 0.22 | 0.00 | 70 | 1012.1 |
| 20260506114510 | 44 | 306 | 2.0 | 4.0 | 0.00 | 0.22 | 0.00 | 72 | 1011.9 |
| 20260506113018 | 43 | 326 | 2.0 | 3.0 | 0.00 | 0.22 | 0.00 | 73 | 1011.5 |
| 20260506111526 | 44 | 311 | 0.0 | 4.0 | 0.00 | 0.22 | 0.00 | 75 | 1011.3 |
| 20260506110023 | 44 | 340 | 1.0 | 6.0 | 0.00 | 0.22 | 0.00 | 76 | 1011.1 |
| 20260506104507 | 44 | 314 | 1.0 | 4.0 | 0.00 | 0.22 | 0.00 | 80 | 1010.7 |
| 20260506103018 | 44 | 323 | 2.0 | 4.0 | 0.00 | 0.22 | 0.00 | 83 | 1010.8 |
| 20260506101517 | 44 | 319 | 1.0 | 3.0 | 0.00 | 0.22 | 0.00 | 85 | 1010.4 |
| 20260506100019 | 44 | 310 | 2.0 | 3.0 | 0.00 | 0.22 | 0.00 | 85 | 1010.5 |
| 20260506094524 | 44 | 294 | 2.0 | 2.0 | 0.00 | 0.22 | 0.00 | 85 | 1010.4 |
| 20260506093013 | 44 | 293 | 1.0 | 3.0 | 0.00 | 0.22 | 0.00 | 85 | 1010.3 |
| 20260506091514 | 44 | 297 | 2.0 | 3.0 | 0.00 | 0.22 | 0.00 | 86 | 1010.5 |
| 20260506090018 | 44 | 285 | 0.0 | 2.0 | 0.00 | 0.22 | 0.00 | 86 | 1009.9 |
| 20260506084524 | 44 | 289 | 1.0 | 2.0 | 0.00 | 0.22 | 0.00 | 86 | 1009.9 |